LJLJEBCI

Guest
Details From LJLJ - Ljubljana
To EBCI - Brussels South - Charleroi
Flight Number -
Tags Generated
Created
Modified
Stats Distance 472 nm / 875 km
Max Altitude 0 ft / 0 m
Waypoints 4
Social Downloads 0
Likes 0
Share VATSIM

Download

Looking for another format? Having issues loading an existing format? Contact us
Advertisement - Login to hide

Notes

Generated

Route

LJLJ SUDEN GSY EBCI

ID Type Via Altitude Latitude Longitude Leg Dist Tot Dist Heading (true) Name
O LJLJ APT - 0 ft / 0 m 46.23249˚ 14.44039˚ - 0 nm - -
SUDEN FIX - 0 ft / 0 m 48.52917˚ 9.46222˚ 244 nm 244 nm 306° / 302° -
GSY VOR - 0 ft / 0 m 50.45389˚ 4.44139˚ 227 nm 472 nm 302° / 299° GOSLY VOR-DME
O EBCI APT - 0 ft / 0 m 50.45539˚ 4.43664˚ 0 nm 472 nm 296° / 296° -

Altitude Profile

Advertisement - Login to hide

Weather


0- 5 10 15 20 25 30 35+ Temperature / ° C

Clouds and Precipitation
Forecast for 2017-12-14 06:00 UTC. Updated an hour ago

Ground ~20,000 ft ~40,000 ft Winds

LJLJ

Details ICAO LJLJ (LJU)
Name LJUBLJANA
Region Slovenia
Timezone Europe/Ljubljana (UTC+1.0)
Stats Elevation 1,273 ft / 388 m (AMSL)
Location 46.223685° 14.457608°
Runways 1
Magnetic Variation 3.661° E

METAR

LJLJ 140230Z VRB02KT 6000 OVC030 00/00 Q1008 NOSIG

Decode

TAF

TAF LJLJ 140200Z 1403/1503 30003KT 7000 FEW003 OVC035 TEMPO 1403/1410 3500 -RA BR BKN010 OVC020 PROB40 TEMPO 1403/1408 0500 FZFG BECMG 1408/1410 27005KT 9999 TEMPO 1412/1418 27010KT SCT035 TEMPO 1416/1503 7000 SHRA SCT030TCU BKN035

Decode

Departure Runways

ID Width Length Bearing (true) Bearing (mag) Surface Threshold Offset Overrun Length
13 148 ft / 45 m 10,811 ft / 3,295 m 126.47° 122.81° Asphalt 0 ft / 0 m 0 ft / 0 m
31 148 ft / 45 m 10,811 ft / 3,295 m 306.49° 302.83° Asphalt 0 ft / 0 m 0 ft / 0 m

EBCI

Details ICAO EBCI (CRL)
Name Brussels South - Charleroi
Region Belgium
Timezone Europe/Brussels (UTC+1.0)
Stats Elevation 614 ft / 187 m (AMSL)
Location 50.459947° 4.453125°
Runways 1
Magnetic Variation 1.133° E

METAR

EBCI 140220Z 25020KT 9999 FEW007 BKN010 04/01 Q0992 TEMPO 20020G35KT 2500 SHRASN BKN005

Decode

TAF

TAF EBCI 132310Z 1400/1506 26020KT 9999 SCT014 BKN030 TEMPO 1400/1402 26025G45KT 3000 SHRASN BKN003 BKN010CB TEMPO 1402/1411 23020G35KT PROB40 TEMPO 1407/1414 3000 SHSNRA BKN005 BKN010CB BECMG 1410/1412 23010KT PROB40 TEMPO 1418/1421 3000 SHSNRAGS BKN006 BKN010CB TEMPO 1422/1506 2500 -RASN BKN003

Decode

Destination Runways

ID Width Length Bearing (true) Bearing (mag) Surface Threshold Offset Overrun Length
07 148 ft / 45 m 8,374 ft / 2,552 m 65.53° 64.40° Asphalt 1,476 ft / 450 m 0 ft / 0 m
25 148 ft / 45 m 8,374 ft / 2,552 m 245.55° 244.42° Asphalt 0 ft / 0 m 0 ft / 0 m

Approach Navaids

Runway Type Ident Frequency Range Bearing (true) Bearing (mag) Slope Elevation
25 Localiser IGC 110.90 MHz 18 nm / 33 km 245.54° 244.41° - 614 ft / 187 m (AMSL)
25 Glidescope IGC 110.90 MHz 10 nm / 19 km 245.54° 244.41° 3.00° 614 ft / 187 m (AMSL)